createdAt,value
2023-03-17T00:00:48.843Z,2.94
2023-03-17T00:01:48.817Z,2.98
2023-03-17T00:02:48.871Z,2.97
2023-03-17T00:03:48.757Z,3.12
2023-03-17T00:04:48.720Z,3.16
2023-03-17T00:05:48.683Z,3.26
2023-03-17T00:06:48.757Z,3.17
2023-03-17T00:07:48.626Z,3.19
2023-03-17T00:08:48.587Z,3.22
2023-03-17T00:09:48.556Z,3.23
2023-03-17T00:10:48.525Z,3.20
2023-03-17T00:11:48.498Z,3.05
2023-03-17T00:12:48.461Z,2.92
2023-03-17T00:13:48.431Z,2.89
2023-03-17T00:14:48.450Z,2.98
2023-03-17T00:15:48.418Z,3.10
2023-03-17T00:16:48.356Z,3.26
2023-03-17T00:17:48.303Z,3.33
2023-03-17T00:18:48.284Z,3.39
2023-03-17T00:19:48.241Z,3.44
2023-03-17T00:20:48.207Z,3.45
2023-03-17T00:21:48.180Z,3.56
2023-03-17T00:22:48.167Z,3.44
2023-03-17T00:23:48.113Z,3.53
2023-03-17T00:24:48.079Z,3.54
2023-03-17T00:25:48.058Z,3.37
2023-03-17T00:26:48.018Z,3.35
2023-03-17T00:27:47.987Z,3.31
2023-03-17T00:28:47.952Z,3.17
2023-03-17T00:29:47.922Z,3.22
2023-03-17T00:30:47.895Z,3.17
2023-03-17T00:31:47.860Z,3.23
2023-03-17T00:32:47.878Z,3.07
2023-03-17T00:33:47.796Z,2.99
2023-03-17T00:34:47.764Z,2.84
2023-03-17T00:35:47.757Z,2.92
2023-03-17T00:36:47.700Z,2.84
2023-03-17T00:37:47.669Z,2.81
2023-03-17T00:38:47.675Z,2.79
2023-03-17T00:39:47.607Z,2.81
2023-03-17T00:40:47.577Z,2.87
2023-03-17T00:41:47.543Z,2.84
2023-03-17T00:42:47.515Z,2.89
2023-03-17T00:43:47.481Z,2.89
2023-03-17T00:44:47.446Z,2.97
2023-03-17T00:45:47.415Z,2.99
2023-03-17T00:46:47.478Z,2.97
2023-03-17T00:47:47.352Z,2.98
2023-03-17T00:48:47.320Z,2.94
2023-03-17T00:49:47.288Z,2.80
2023-03-17T00:50:47.259Z,2.80
2023-03-17T00:51:47.226Z,2.79
2023-03-17T00:52:47.190Z,2.73
2023-03-17T00:53:47.162Z,2.79
2023-03-17T00:54:47.532Z,2.81
2023-03-17T00:55:47.099Z,2.77
2023-03-17T00:56:47.067Z,2.68
2023-03-17T00:57:47.035Z,2.66
2023-03-17T00:58:47.002Z,2.65
2023-03-17T00:59:46.974Z,2.84
2023-03-17T01:00:47.020Z,2.74
2023-03-17T01:01:46.953Z,2.69
2023-03-17T01:02:46.894Z,2.65
2023-03-17T01:03:46.848Z,2.63
2023-03-17T01:04:52.828Z,2.66
2023-03-17T01:05:46.783Z,2.71
2023-03-17T01:06:46.747Z,2.73
2023-03-17T01:07:46.719Z,2.69
2023-03-17T01:08:46.682Z,2.74
2023-03-17T01:09:46.654Z,2.79
2023-03-17T01:10:46.644Z,2.74
2023-03-17T01:11:46.592Z,2.79
2023-03-17T01:12:46.557Z,2.73
2023-03-17T01:13:46.536Z,2.74
2023-03-17T01:14:46.495Z,2.53
2023-03-17T01:15:46.467Z,2.58
2023-03-17T01:16:46.471Z,2.66
2023-03-17T01:17:46.408Z,2.73
2023-03-17T01:18:46.405Z,2.66
2023-03-17T01:19:46.337Z,2.69
2023-03-17T01:20:46.303Z,2.66
2023-03-17T01:21:46.274Z,2.68
2023-03-17T01:22:46.242Z,2.74
2023-03-17T01:23:46.209Z,2.55
2023-03-17T01:24:46.176Z,2.63
2023-03-17T01:25:46.146Z,2.65
2023-03-17T01:26:46.132Z,2.71
2023-03-17T01:27:46.092Z,2.69
2023-03-17T01:28:46.053Z,2.65
2023-03-17T01:29:46.027Z,2.71
2023-03-17T01:30:45.987Z,2.69
2023-03-17T01:31:46.031Z,2.71
2023-03-17T01:32:45.947Z,2.63
2023-03-17T01:33:45.894Z,2.53
2023-03-17T01:34:45.866Z,2.58
2023-03-17T01:35:46.021Z,2.58
2023-03-17T01:36:45.798Z,2.48
2023-03-17T01:37:45.770Z,2.32
2023-03-17T01:38:45.737Z,2.32
2023-03-17T01:39:45.718Z,2.40
2023-03-17T01:40:45.667Z,2.26
2023-03-17T01:41:45.664Z,2.27
2023-03-17T01:42:45.629Z,2.36
2023-03-17T01:43:45.577Z,2.48
2023-03-17T01:44:45.545Z,2.43
2023-03-17T01:45:45.586Z,2.50
2023-03-17T01:46:45.487Z,2.76
2023-03-17T01:47:45.450Z,2.74
2023-03-17T01:48:45.421Z,2.80
2023-03-17T01:49:45.387Z,2.83
2023-03-17T01:50:45.354Z,2.83
2023-03-17T01:51:45.322Z,2.68
2023-03-17T01:52:45.288Z,2.69
2023-03-17T01:53:45.267Z,2.56
2023-03-17T01:54:45.241Z,2.38
2023-03-17T01:55:45.195Z,2.44
2023-03-17T01:56:45.161Z,2.48
2023-03-17T01:57:45.131Z,2.47
2023-03-17T01:58:45.121Z,2.62
2023-03-17T01:59:45.064Z,2.74
2023-03-17T02:00:45.063Z,2.68
2023-03-17T02:01:45.002Z,2.84
2023-03-17T02:02:44.969Z,2.86
2023-03-17T02:03:44.938Z,2.89
2023-03-17T02:04:44.906Z,2.89
2023-03-17T02:05:44.875Z,2.86
2023-03-17T02:06:57.572Z,2.83
2023-03-17T02:07:44.820Z,2.83
2023-03-17T02:08:44.775Z,2.69
2023-03-17T02:09:44.776Z,2.68
2023-03-17T02:10:44.721Z,2.73
2023-03-17T02:11:44.682Z,2.69
2023-03-17T02:12:44.648Z,2.61
2023-03-17T02:13:44.649Z,2.51
2023-03-17T02:14:44.606Z,2.53
2023-03-17T02:15:44.554Z,2.53
2023-03-17T02:16:44.535Z,2.41
2023-03-17T02:17:44.490Z,2.29
2023-03-17T02:18:44.456Z,2.12
2023-03-17T02:19:44.428Z,2.25
2023-03-17T02:20:44.393Z,2.20
2023-03-17T02:21:44.361Z,2.19
2023-03-17T02:22:44.331Z,2.23
2023-03-17T02:23:44.298Z,2.12
2023-03-17T02:24:44.264Z,2.33
2023-03-17T02:25:44.232Z,2.27
2023-03-17T02:26:44.202Z,2.22
2023-03-17T02:27:44.183Z,2.22
2023-03-17T02:28:44.137Z,2.36
2023-03-17T02:29:44.103Z,2.44
2023-03-17T02:30:44.128Z,2.44
2023-03-17T02:31:44.043Z,2.41
2023-03-17T02:32:44.100Z,2.43
2023-03-17T02:33:43.979Z,2.44
2023-03-17T02:34:43.949Z,2.47
2023-03-17T02:35:43.936Z,2.69
2023-03-17T02:36:43.951Z,2.83
2023-03-17T02:37:43.855Z,2.84
2023-03-17T02:38:43.829Z,2.83
2023-03-17T02:39:43.790Z,2.71
2023-03-17T02:40:43.754Z,2.68
2023-03-17T02:41:43.736Z,2.71
2023-03-17T02:42:43.693Z,2.71
2023-03-17T02:43:43.667Z,2.79
2023-03-17T02:44:43.634Z,2.69
2023-03-17T02:45:43.639Z,2.73
2023-03-17T02:46:43.593Z,2.86
2023-03-17T02:47:43.537Z,2.89
2023-03-17T02:48:43.502Z,2.94
2023-03-17T02:49:43.474Z,2.89
2023-03-17T02:50:43.436Z,2.87
2023-03-17T02:51:43.410Z,2.76
2023-03-17T02:52:43.375Z,2.84
2023-03-17T02:53:43.343Z,2.89
2023-03-17T02:54:43.311Z,2.84
2023-03-17T02:55:43.283Z,2.94
2023-03-17T02:56:43.246Z,2.86
2023-03-17T02:57:43.216Z,2.89
2023-03-17T02:58:43.184Z,2.87
2023-03-17T02:59:43.152Z,2.87
2023-03-17T03:00:43.120Z,2.81
2023-03-17T03:01:43.123Z,2.76
2023-03-17T03:02:43.178Z,2.66
2023-03-17T03:03:43.030Z,2.69
2023-03-17T03:04:42.992Z,2.69
2023-03-17T03:05:42.968Z,2.58
2023-03-17T03:06:42.940Z,2.53
2023-03-17T03:07:42.898Z,2.48
2023-03-17T03:08:42.871Z,2.45
2023-03-17T03:09:42.839Z,2.47
2023-03-17T03:10:42.804Z,2.48
2023-03-17T03:11:42.786Z,2.32
2023-03-17T03:12:42.750Z,2.32
2023-03-17T03:13:42.712Z,2.36
2023-03-17T03:14:42.677Z,2.43
2023-03-17T03:15:42.757Z,2.45
2023-03-17T03:16:42.616Z,2.38
2023-03-17T03:17:42.582Z,2.36
2023-03-17T03:18:42.569Z,2.33
2023-03-17T03:19:42.534Z,2.19
2023-03-17T03:20:42.487Z,2.22
2023-03-17T03:21:42.456Z,2.07
2023-03-17T03:22:42.423Z,2.05
2023-03-17T03:23:42.409Z,2.09
2023-03-17T03:24:42.359Z,2.05
2023-03-17T03:25:42.325Z,2.04
2023-03-17T03:26:42.295Z,2.09
2023-03-17T03:27:42.263Z,2.02
2023-03-17T03:28:42.232Z,2.00
2023-03-17T03:29:42.200Z,2.08
2023-03-17T03:30:42.196Z,2.09
2023-03-17T03:31:42.135Z,2.15
2023-03-17T03:32:42.126Z,2.05
2023-03-17T03:33:42.071Z,2.22
2023-03-17T03:34:42.162Z,2.18
2023-03-17T03:35:42.046Z,2.15
2023-03-17T03:36:41.982Z,2.05
2023-03-17T03:37:41.943Z,2.12
2023-03-17T03:38:41.910Z,2.08
2023-03-17T03:39:41.880Z,2.05
2023-03-17T03:40:41.855Z,2.07
2023-03-17T03:41:41.816Z,2.04
2023-03-17T03:42:41.785Z,2.04
2023-03-17T03:43:41.753Z,1.93
2023-03-17T03:44:41.722Z,1.93
2023-03-17T03:45:41.686Z,2.07
2023-03-17T03:46:41.725Z,2.19
2023-03-17T03:47:41.623Z,2.14
2023-03-17T03:48:41.590Z,2.27
2023-03-17T03:49:41.558Z,2.30
2023-03-17T03:50:41.555Z,2.41
2023-03-17T03:51:41.505Z,2.40
2023-03-17T03:52:41.468Z,2.48
2023-03-17T03:53:41.434Z,2.40
2023-03-17T03:54:41.396Z,2.40
2023-03-17T03:55:41.368Z,2.36
2023-03-17T03:56:41.333Z,2.30
2023-03-17T03:57:41.300Z,2.18
2023-03-17T03:58:41.271Z,2.22
2023-03-17T03:59:41.242Z,2.23
2023-03-17T04:00:41.205Z,2.12
2023-03-17T04:01:41.173Z,2.15
2023-03-17T04:02:41.180Z,2.07
2023-03-17T04:03:41.110Z,2.09
2023-03-17T04:04:41.168Z,2.05
2023-03-17T04:05:41.058Z,2.04
2023-03-17T04:06:41.039Z,2.04
2023-03-17T04:07:40.983Z,2.02
2023-03-17T04:08:40.951Z,2.07
2023-03-17T04:09:40.933Z,2.09
2023-03-17T04:10:40.888Z,2.08
2023-03-17T04:11:40.873Z,2.08
2023-03-17T04:12:40.830Z,2.05
2023-03-17T04:13:40.798Z,2.07
2023-03-17T04:14:40.761Z,1.93
2023-03-17T04:15:40.729Z,1.90
2023-03-17T04:16:43.266Z,1.86
2023-03-17T04:17:40.666Z,1.81
2023-03-17T04:18:40.697Z,1.70
2023-03-17T04:19:40.606Z,1.71
2023-03-17T04:20:40.570Z,1.82
2023-03-17T04:21:40.533Z,1.85
2023-03-17T04:22:40.525Z,1.86
2023-03-17T04:23:40.480Z,1.86
2023-03-17T04:24:40.442Z,1.83
2023-03-17T04:25:40.412Z,1.74
2023-03-17T04:26:40.376Z,1.71
2023-03-17T04:27:40.344Z,1.70
2023-03-17T04:28:40.311Z,1.81
2023-03-17T04:29:40.280Z,1.77
2023-03-17T04:30:40.249Z,1.77
2023-03-17T04:31:40.249Z,1.79
2023-03-17T04:32:40.253Z,1.81
2023-03-17T04:33:40.149Z,1.81
2023-03-17T04:34:40.120Z,1.72
2023-03-17T04:35:40.113Z,1.72
2023-03-17T04:36:40.054Z,1.71
2023-03-17T04:37:40.021Z,1.68
2023-03-17T04:38:40.014Z,1.60
2023-03-17T04:39:39.958Z,1.71
2023-03-17T04:40:39.926Z,1.68
2023-03-17T04:41:39.892Z,1.70
2023-03-17T04:42:39.863Z,1.79
2023-03-17T04:43:39.828Z,1.77
2023-03-17T04:44:39.797Z,1.81
2023-03-17T04:45:39.809Z,1.79
2023-03-17T04:46:39.742Z,1.70
2023-03-17T04:47:39.701Z,1.63
2023-03-17T04:48:39.668Z,1.67
2023-03-17T04:49:39.647Z,1.64
2023-03-17T04:50:39.603Z,1.63
2023-03-17T04:51:39.572Z,1.65
2023-03-17T04:52:39.540Z,1.65
2023-03-17T04:53:39.514Z,1.57
2023-03-17T04:54:39.495Z,1.50
2023-03-17T04:55:39.442Z,1.56
2023-03-17T04:56:39.414Z,1.57
2023-03-17T04:57:39.411Z,1.61
2023-03-17T04:58:39.348Z,1.53
2023-03-17T04:59:39.315Z,1.54
2023-03-17T05:00:39.283Z,1.49
2023-03-17T05:01:39.391Z,1.49
2023-03-17T05:02:39.345Z,1.81
2023-03-17T05:03:39.191Z,1.85
2023-03-17T05:04:39.153Z,1.82
2023-03-17T05:05:39.123Z,1.77
2023-03-17T05:06:39.097Z,1.77
2023-03-17T05:07:39.065Z,1.67
2023-03-17T05:08:39.026Z,1.54
2023-03-17T05:09:38.997Z,1.50
2023-03-17T05:10:38.981Z,1.52
2023-03-17T05:11:38.930Z,1.53
2023-03-17T05:12:38.895Z,1.49
2023-03-17T05:13:38.863Z,1.52
2023-03-17T05:14:38.833Z,1.52
2023-03-17T05:15:38.797Z,1.50
2023-03-17T05:16:38.926Z,1.47
2023-03-17T05:17:38.737Z,1.52
2023-03-17T05:18:38.706Z,1.61
2023-03-17T05:19:38.669Z,1.65
2023-03-17T05:20:38.638Z,1.49
2023-03-17T05:21:38.619Z,1.49
2023-03-17T05:22:38.577Z,1.47
2023-03-17T05:23:38.539Z,1.43
2023-03-17T05:24:38.509Z,1.56
2023-03-17T05:25:38.475Z,1.49
2023-03-17T05:26:38.462Z,1.39
2023-03-17T05:27:38.411Z,1.54
2023-03-17T05:28:38.379Z,1.64
2023-03-17T05:29:38.343Z,1.61
2023-03-17T05:30:38.361Z,1.64
2023-03-17T05:31:38.283Z,1.60
2023-03-17T05:32:38.272Z,1.63
2023-03-17T05:33:38.222Z,1.56
2023-03-17T05:34:38.183Z,1.50
2023-03-17T05:35:38.177Z,1.52
2023-03-17T05:36:38.122Z,1.38
2023-03-17T05:37:38.085Z,1.34
2023-03-17T05:38:38.057Z,1.43
2023-03-17T05:39:38.035Z,1.44
2023-03-17T05:40:37.988Z,1.49
2023-03-17T05:41:37.959Z,1.46
2023-03-17T05:42:37.957Z,1.49
2023-03-17T05:43:37.892Z,1.50
2023-03-17T05:44:37.863Z,1.52
2023-03-17T05:45:37.828Z,1.56
2023-03-17T05:46:37.798Z,1.46
2023-03-17T05:47:37.768Z,1.46
2023-03-17T05:48:37.732Z,1.50
2023-03-17T05:49:37.697Z,1.60
2023-03-17T05:50:37.668Z,1.56
2023-03-17T05:51:37.634Z,1.56
2023-03-17T05:52:37.604Z,1.52
2023-03-17T05:53:37.570Z,1.61
2023-03-17T05:54:37.561Z,1.53
2023-03-17T05:55:37.506Z,1.53
2023-03-17T05:56:37.479Z,1.53
2023-03-17T05:57:37.454Z,1.63
2023-03-17T05:58:37.429Z,1.63
2023-03-17T05:59:37.383Z,1.61
2023-03-17T06:00:37.347Z,1.61
2023-03-17T06:01:37.313Z,1.61
2023-03-17T06:02:37.365Z,1.61
2023-03-17T06:03:37.284Z,1.63
2023-03-17T06:04:37.219Z,1.52
2023-03-17T06:05:37.186Z,1.54
2023-03-17T06:06:37.156Z,1.61
2023-03-17T06:07:50.867Z,1.56
2023-03-17T06:08:37.091Z,1.67
2023-03-17T06:09:37.057Z,1.82
2023-03-17T06:10:37.026Z,1.88
2023-03-17T06:11:37.020Z,1.88
2023-03-17T06:12:36.962Z,1.86
2023-03-17T06:13:36.928Z,1.85
2023-03-17T06:14:36.917Z,1.92
2023-03-17T06:15:36.907Z,1.92
2023-03-17T06:16:36.866Z,2.04
2023-03-17T06:17:36.799Z,2.09
2023-03-17T06:18:36.778Z,2.09
2023-03-17T06:19:36.737Z,2.20
2023-03-17T06:20:36.802Z,2.23
2023-03-17T06:21:36.672Z,2.22
2023-03-17T06:22:36.641Z,2.25
2023-03-17T06:23:36.631Z,2.18
2023-03-17T06:24:36.577Z,2.36
2023-03-17T06:25:36.549Z,2.29
2023-03-17T06:26:36.513Z,2.29
2023-03-17T06:27:36.480Z,2.36
2023-03-17T06:28:36.448Z,2.30
2023-03-17T06:29:36.422Z,2.37
2023-03-17T06:30:38.178Z,2.47
2023-03-17T06:31:36.407Z,2.44
2023-03-17T06:32:36.340Z,2.59
2023-03-17T06:33:36.286Z,2.66
2023-03-17T06:34:36.256Z,2.71
2023-03-17T06:35:36.279Z,2.71
2023-03-17T06:36:38.550Z,2.84
2023-03-17T06:37:36.158Z,2.89
2023-03-17T06:38:36.127Z,2.81
2023-03-17T06:39:36.095Z,2.86
2023-03-17T06:40:36.069Z,2.99
2023-03-17T06:41:36.034Z,3.07
2023-03-17T06:42:36.001Z,3.16
2023-03-17T06:43:35.969Z,3.16
2023-03-17T06:44:35.937Z,3.20
2023-03-17T06:45:35.912Z,3.31
2023-03-17T06:46:35.973Z,3.30
2023-03-17T06:47:35.841Z,3.46
2023-03-17T06:48:35.840Z,3.52
2023-03-17T06:49:35.779Z,3.56
2023-03-17T06:50:35.750Z,3.63
2023-03-17T06:51:35.717Z,3.67
2023-03-17T06:52:35.684Z,3.72
2023-03-17T06:53:35.652Z,3.80
2023-03-17T06:54:35.622Z,3.81
2023-03-17T06:55:35.592Z,3.80
2023-03-17T06:56:35.559Z,3.99
2023-03-17T06:57:35.527Z,4.00
2023-03-17T06:58:35.499Z,4.04
2023-03-17T06:59:35.463Z,4.06
2023-03-17T07:00:35.440Z,4.13
2023-03-17T07:01:35.412Z,4.17
2023-03-17T07:02:35.389Z,4.21
2023-03-17T07:03:36.251Z,4.31
2023-03-17T07:04:35.352Z,4.34
2023-03-17T07:05:35.322Z,4.43
2023-03-17T07:06:35.246Z,4.43
2023-03-17T07:07:35.215Z,4.38
2023-03-17T07:08:35.220Z,4.57
2023-03-17T07:09:35.154Z,4.62
2023-03-17T07:10:35.128Z,4.67
2023-03-17T07:11:35.090Z,4.62
2023-03-17T07:12:35.079Z,4.69
2023-03-17T07:13:35.026Z,4.71
2023-03-17T07:14:35.017Z,4.72
2023-03-17T07:15:35.156Z,4.65
2023-03-17T07:16:34.982Z,4.86
2023-03-17T07:17:34.985Z,4.91
2023-03-17T07:18:34.911Z,4.94
2023-03-17T07:19:34.875Z,4.96
2023-03-17T07:20:34.811Z,5.05
2023-03-17T07:21:34.819Z,5.04
2023-03-17T07:22:34.799Z,5.02
2023-03-17T07:23:34.729Z,5.09
2023-03-17T07:24:34.705Z,5.14
2023-03-17T07:25:34.664Z,5.24
2023-03-17T07:26:34.634Z,5.23
2023-03-17T07:27:34.602Z,5.32
2023-03-17T07:28:34.570Z,5.37
2023-03-17T07:29:34.578Z,5.27
2023-03-17T07:30:34.508Z,5.27
2023-03-17T07:31:34.536Z,5.32
2023-03-17T07:32:34.469Z,5.33
2023-03-17T07:33:34.416Z,5.38
2023-03-17T07:34:34.413Z,5.29
2023-03-17T07:35:34.887Z,5.30
2023-03-17T07:36:34.321Z,5.24
2023-03-17T07:37:34.300Z,5.19
2023-03-17T07:38:34.262Z,5.12
2023-03-17T07:39:34.232Z,5.08
2023-03-17T07:40:35.415Z,5.14
2023-03-17T07:41:34.172Z,5.11
2023-03-17T07:42:34.136Z,5.20
2023-03-17T07:43:34.110Z,5.26
2023-03-17T07:44:34.104Z,5.27
2023-03-17T07:45:34.386Z,5.40
2023-03-17T07:46:34.018Z,5.42
2023-03-17T07:47:33.987Z,5.55
2023-03-17T07:48:33.982Z,5.65
2023-03-17T07:49:41.173Z,5.73
2023-03-17T07:50:33.914Z,5.74
2023-03-17T07:51:33.885Z,5.69
2023-03-17T07:52:33.836Z,5.58
2023-03-17T07:53:33.829Z,5.47
2023-03-17T07:54:33.776Z,5.51
2023-03-17T07:55:33.808Z,5.65
2023-03-17T07:56:33.729Z,5.78
2023-03-17T07:57:33.703Z,5.96
2023-03-17T07:58:33.651Z,6.08
2023-03-17T07:59:33.669Z,6.02
2023-03-17T08:00:34.115Z,5.99
2023-03-17T08:01:33.564Z,5.99
2023-03-17T08:02:33.576Z,5.96
2023-03-17T08:03:33.558Z,6.01
2023-03-17T08:04:33.471Z,6.02
2023-03-17T08:05:33.441Z,6.06
2023-03-17T08:06:33.428Z,6.25
2023-03-17T08:07:33.436Z,6.28
2023-03-17T08:08:33.352Z,6.28
2023-03-17T08:09:33.345Z,6.33
2023-03-17T08:10:33.838Z,6.35
2023-03-17T08:11:33.264Z,6.46
2023-03-17T08:12:33.232Z,6.43
2023-03-17T08:13:33.204Z,6.45
2023-03-17T08:14:33.183Z,6.45
2023-03-17T08:15:33.146Z,6.35
2023-03-17T08:16:33.187Z,6.35
2023-03-17T08:17:33.084Z,6.42
2023-03-17T08:18:33.091Z,6.35
2023-03-17T08:19:33.023Z,6.54
2023-03-17T08:20:33.366Z,6.63
2023-03-17T08:21:32.987Z,6.69
2023-03-17T08:22:32.973Z,6.79
2023-03-17T08:23:32.906Z,6.91
2023-03-17T08:24:32.922Z,7.00
2023-03-17T08:25:32.844Z,7.08
2023-03-17T08:26:32.815Z,7.08
2023-03-17T08:27:33.995Z,7.21
2023-03-17T08:28:32.755Z,7.29
2023-03-17T08:29:32.766Z,7.33
2023-03-17T08:30:33.890Z,7.33
2023-03-17T08:31:32.763Z,7.42
2023-03-17T08:32:32.707Z,7.37
2023-03-17T08:33:32.622Z,7.51
2023-03-17T08:34:32.578Z,7.55
2023-03-17T08:35:32.974Z,7.58
2023-03-17T08:36:32.517Z,7.69
2023-03-17T08:37:32.492Z,7.63
2023-03-17T08:38:32.482Z,7.62
2023-03-17T08:39:32.434Z,7.60
2023-03-17T08:40:32.713Z,7.60
2023-03-17T08:41:32.375Z,7.67
2023-03-17T08:42:32.350Z,7.69
2023-03-17T08:43:32.327Z,7.66
2023-03-17T08:44:32.285Z,7.73
2023-03-17T08:45:32.652Z,7.81
2023-03-17T08:46:32.311Z,7.69
2023-03-17T08:47:32.200Z,7.67
2023-03-17T08:48:32.170Z,7.81
2023-03-17T08:49:32.141Z,7.69
2023-03-17T08:50:32.412Z,7.74
2023-03-17T08:51:32.112Z,7.79
2023-03-17T08:52:32.056Z,7.89
2023-03-17T08:53:32.024Z,7.94
2023-03-17T08:54:32.040Z,8.00
2023-03-17T08:55:31.967Z,8.03
2023-03-17T08:56:31.938Z,8.10
2023-03-17T08:57:31.910Z,8.25
2023-03-17T08:58:31.878Z,8.40
2023-03-17T08:59:31.848Z,8.42
2023-03-17T09:00:32.290Z,8.34
2023-03-17T09:01:31.815Z,8.45
2023-03-17T09:02:31.848Z,8.60
2023-03-17T09:03:31.733Z,8.60
2023-03-17T09:04:31.701Z,8.68
2023-03-17T09:05:32.119Z,8.63
2023-03-17T09:06:31.652Z,8.65
2023-03-17T09:07:31.692Z,8.65
2023-03-17T09:08:31.585Z,8.65
2023-03-17T09:09:31.565Z,8.78
2023-03-17T09:10:31.794Z,8.83
2023-03-17T09:11:31.535Z,8.71
2023-03-17T09:12:33.191Z,8.80
2023-03-17T09:13:31.445Z,8.82
2023-03-17T09:14:40.118Z,8.75
2023-03-17T09:15:31.639Z,8.75
2023-03-17T09:16:31.398Z,8.88
2023-03-17T09:17:31.331Z,8.85
2023-03-17T09:18:31.345Z,8.89
2023-03-17T09:19:31.273Z,9.01
2023-03-17T09:20:31.393Z,8.85
2023-03-17T09:21:31.226Z,8.98
2023-03-17T09:22:31.182Z,9.01
2023-03-17T09:23:31.174Z,9.03
2023-03-17T09:24:31.133Z,9.12
2023-03-17T09:25:31.097Z,9.23
2023-03-17T09:26:31.086Z,9.20
2023-03-17T09:27:31.043Z,9.16
2023-03-17T09:28:31.013Z,9.32
2023-03-17T09:29:31.001Z,9.42
2023-03-17T09:30:31.211Z,9.48
2023-03-17T09:31:30.977Z,9.50
2023-03-17T09:32:30.938Z,9.49
2023-03-17T09:33:30.872Z,9.65
2023-03-17T09:34:30.841Z,9.67
2023-03-17T09:35:30.880Z,9.68
2023-03-17T09:36:30.782Z,9.77
2023-03-17T09:37:30.756Z,9.89
2023-03-17T09:38:30.726Z,9.96
2023-03-17T09:39:30.713Z,10.09
2023-03-17T09:40:31.179Z,10.14
2023-03-17T09:41:30.645Z,10.22
2023-03-17T09:42:30.635Z,10.25
2023-03-17T09:43:30.588Z,10.36
2023-03-17T09:44:30.559Z,10.42
2023-03-17T09:45:30.537Z,10.62
2023-03-17T09:46:30.566Z,10.72
2023-03-17T09:47:30.477Z,10.81
2023-03-17T09:48:30.447Z,10.93
2023-03-17T09:49:30.421Z,11.02
2023-03-17T09:50:30.659Z,11.17
2023-03-17T09:51:30.367Z,11.21
2023-03-17T09:52:30.346Z,11.44
2023-03-17T09:53:30.311Z,11.57
2023-03-17T09:54:30.282Z,11.36
2023-03-17T09:55:30.725Z,11.41
2023-03-17T09:56:30.229Z,11.63
2023-03-17T09:57:30.204Z,11.36
2023-03-17T09:58:30.203Z,10.95
2023-03-17T09:59:30.173Z,11.01
2023-03-17T10:00:30.128Z,11.33
2023-03-17T10:01:30.170Z,11.59
2023-03-17T10:02:30.091Z,11.77
2023-03-17T10:03:30.112Z,11.81
2023-03-17T10:04:30.078Z,11.67
2023-03-17T10:05:30.509Z,11.49
2023-03-17T10:06:29.965Z,11.64
2023-03-17T10:07:29.932Z,11.77
2023-03-17T10:08:31.965Z,11.82
2023-03-17T10:09:29.911Z,12.12
2023-03-17T10:10:30.159Z,12.12
2023-03-17T10:11:29.826Z,12.21
2023-03-17T10:12:29.805Z,12.16
2023-03-17T10:13:29.783Z,12.38
2023-03-17T10:14:29.763Z,12.38
2023-03-17T10:15:30.143Z,12.21
2023-03-17T10:16:29.769Z,12.03
2023-03-17T10:17:29.664Z,12.11
2023-03-17T10:18:29.637Z,12.15
2023-03-17T10:19:29.617Z,12.21
2023-03-17T10:20:29.584Z,11.78
2023-03-17T10:21:29.562Z,11.63
2023-03-17T10:22:29.533Z,11.56
2023-03-17T10:23:29.509Z,11.63
2023-03-17T10:24:29.484Z,11.79
2023-03-17T10:25:29.910Z,12.01
2023-03-17T10:26:29.444Z,12.01
2023-03-17T10:27:29.408Z,12.05
2023-03-17T10:28:29.373Z,12.21
2023-03-17T10:29:29.348Z,11.98
2023-03-17T10:30:29.856Z,11.96
2023-03-17T10:31:29.400Z,12.03
2023-03-17T10:32:29.347Z,11.88
2023-03-17T10:33:29.243Z,12.01
2023-03-17T10:34:29.241Z,12.12
2023-03-17T10:35:29.852Z,12.30
2023-03-17T10:36:29.166Z,12.43
2023-03-17T10:37:29.140Z,12.33
2023-03-17T10:38:29.118Z,12.43
2023-03-17T10:39:31.474Z,12.44
2023-03-17T10:40:29.410Z,12.48
2023-03-17T10:41:29.032Z,12.31
2023-03-17T10:42:29.014Z,12.19
2023-03-17T10:43:28.979Z,12.23
2023-03-17T10:44:28.955Z,12.34
2023-03-17T10:45:28.930Z,12.49
2023-03-17T10:46:28.980Z,12.49
2023-03-17T10:47:28.884Z,12.41
2023-03-17T10:48:28.853Z,12.48
2023-03-17T10:49:28.823Z,12.15
2023-03-17T10:50:28.853Z,12.18
2023-03-17T10:51:28.771Z,12.31
2023-03-17T10:52:28.742Z,12.37
2023-03-17T10:53:28.726Z,12.43
2023-03-17T10:54:28.710Z,12.69
2023-03-17T10:55:28.670Z,12.76
2023-03-17T10:56:28.641Z,12.74
2023-03-17T10:57:28.624Z,12.77
2023-03-17T10:58:28.593Z,12.79
2023-03-17T10:59:28.629Z,12.70
2023-03-17T11:00:28.817Z,12.84
2023-03-17T11:01:28.548Z,12.62
2023-03-17T11:02:28.512Z,12.73
2023-03-17T11:03:28.535Z,12.94
2023-03-17T11:04:28.453Z,12.92
2023-03-17T11:05:28.410Z,12.91
2023-03-17T11:06:28.381Z,12.79
2023-03-17T11:07:28.357Z,12.79
2023-03-17T11:08:28.330Z,12.66
2023-03-17T11:09:28.306Z,12.71
2023-03-17T11:10:28.320Z,12.61
2023-03-17T11:11:28.256Z,12.77
2023-03-17T11:12:28.233Z,12.59
2023-03-17T11:13:28.210Z,12.84
2023-03-17T11:14:28.181Z,12.91
2023-03-17T11:15:28.153Z,13.06
2023-03-17T11:16:28.232Z,13.22
2023-03-17T11:17:28.103Z,12.95
2023-03-17T11:18:28.115Z,12.92
2023-03-17T11:19:28.048Z,13.03
2023-03-17T11:20:28.089Z,13.21
2023-03-17T11:21:27.996Z,13.09
2023-03-17T11:22:27.971Z,13.16
2023-03-17T11:23:27.947Z,13.29
2023-03-17T11:24:27.919Z,13.21
2023-03-17T11:25:27.902Z,12.98
2023-03-17T11:26:27.880Z,12.87
2023-03-17T11:27:27.842Z,12.79
2023-03-17T11:28:27.830Z,12.96
2023-03-17T11:29:27.799Z,12.84
2023-03-17T11:30:27.797Z,12.88
2023-03-17T11:31:27.772Z,13.07
2023-03-17T11:32:27.756Z,13.14
2023-03-17T11:33:27.692Z,13.13
2023-03-17T11:34:27.687Z,12.95
2023-03-17T11:35:27.641Z,13.06
2023-03-17T11:36:27.614Z,13.06
2023-03-17T11:37:27.590Z,13.22
2023-03-17T11:38:27.559Z,13.28
2023-03-17T11:39:27.533Z,13.32
2023-03-17T11:40:27.505Z,13.31
2023-03-17T11:41:27.484Z,13.38
2023-03-17T11:42:27.463Z,13.29
2023-03-17T11:43:27.431Z,13.32
2023-03-17T11:44:27.401Z,13.50
2023-03-17T11:45:27.381Z,13.66
2023-03-17T11:46:27.429Z,13.69
2023-03-17T11:47:27.326Z,13.57
2023-03-17T11:48:27.299Z,13.24
2023-03-17T11:49:27.275Z,13.16
2023-03-17T11:50:27.266Z,13.24
2023-03-17T11:51:27.222Z,13.46
2023-03-17T11:52:27.196Z,13.51
2023-03-17T11:53:27.172Z,13.69
2023-03-17T11:54:27.149Z,13.66
2023-03-17T11:55:27.121Z,13.57
2023-03-17T11:56:27.093Z,13.55
2023-03-17T11:57:27.081Z,13.63
2023-03-17T11:58:27.054Z,13.75
2023-03-17T11:59:27.024Z,13.75
2023-03-17T12:00:26.989Z,13.76
2023-03-17T12:01:26.960Z,13.71
2023-03-17T12:02:26.938Z,13.88
2023-03-17T12:03:26.943Z,13.83
2023-03-17T12:04:26.924Z,13.87
2023-03-17T12:05:26.865Z,13.94
2023-03-17T12:06:26.851Z,13.86
2023-03-17T12:07:26.805Z,14.01
2023-03-17T12:08:26.795Z,14.02
2023-03-17T12:09:26.752Z,14.01
2023-03-17T12:10:26.730Z,13.86
2023-03-17T12:11:26.701Z,14.09
2023-03-17T12:12:26.675Z,14.16
2023-03-17T12:13:26.659Z,14.29
2023-03-17T12:14:26.625Z,14.09
2023-03-17T12:15:26.621Z,14.06
2023-03-17T12:16:26.572Z,14.19
2023-03-17T12:17:27.611Z,14.12
2023-03-17T12:18:26.519Z,14.24
2023-03-17T12:19:26.494Z,14.52
2023-03-17T12:20:26.465Z,14.46
2023-03-17T12:21:26.445Z,14.74
2023-03-17T12:22:26.440Z,14.60
2023-03-17T12:23:26.392Z,14.53
2023-03-17T12:24:26.365Z,14.49
2023-03-17T12:25:26.338Z,14.49
2023-03-17T12:26:26.314Z,14.38
2023-03-17T12:27:26.287Z,14.48
2023-03-17T12:28:26.262Z,14.49
2023-03-17T12:29:26.240Z,14.27
2023-03-17T12:30:26.210Z,14.38
2023-03-17T12:31:26.266Z,14.42
2023-03-17T12:32:26.296Z,14.54
2023-03-17T12:33:26.131Z,14.79
2023-03-17T12:34:26.109Z,14.67
2023-03-17T12:35:26.094Z,14.57
2023-03-17T12:36:26.057Z,14.45
2023-03-17T12:37:26.034Z,14.49
2023-03-17T12:38:26.052Z,14.52
2023-03-17T12:39:25.981Z,14.54
2023-03-17T12:40:26.372Z,14.60
2023-03-17T12:41:25.929Z,14.63
2023-03-17T12:42:25.911Z,14.74
2023-03-17T12:43:25.877Z,14.85
2023-03-17T12:44:25.853Z,14.94
2023-03-17T12:45:25.826Z,14.71
2023-03-17T12:46:25.842Z,14.63
2023-03-17T12:47:25.808Z,14.75
2023-03-17T12:48:25.751Z,14.87
2023-03-17T12:49:25.725Z,15.01
2023-03-17T12:50:25.699Z,14.93
2023-03-17T12:51:25.674Z,14.97
2023-03-17T12:52:25.649Z,14.94
2023-03-17T12:53:25.621Z,15.04
2023-03-17T12:54:25.633Z,15.07
2023-03-17T12:55:25.570Z,15.33
2023-03-17T12:56:25.548Z,15.41
2023-03-17T12:57:25.520Z,15.28
2023-03-17T12:58:26.455Z,15.31
2023-03-17T12:59:25.473Z,15.40
2023-03-17T13:00:25.495Z,15.01
2023-03-17T13:01:25.531Z,15.05
2023-03-17T13:02:25.396Z,15.15
2023-03-17T13:03:25.430Z,15.15
2023-03-17T13:04:27.151Z,15.20
2023-03-17T13:05:25.319Z,15.31
2023-03-17T13:06:25.295Z,15.43
2023-03-17T13:07:25.269Z,15.58
2023-03-17T13:08:25.246Z,15.84
2023-03-17T13:09:25.218Z,15.55
2023-03-17T13:10:25.214Z,15.56
2023-03-17T13:11:25.168Z,15.67